sensor_id;sensor_type;location;lat;lon;timestamp;temperature;humidity
42019;DHT22;27703;51.980;5.848;2023-04-28T00:00:48;11.10;89.30
42019;DHT22;27703;51.980;5.848;2023-04-28T00:03:14;11.00;89.50
42019;DHT22;27703;51.980;5.848;2023-04-28T00:05:40;11.00;89.50
42019;DHT22;27703;51.980;5.848;2023-04-28T00:08:06;11.00;89.40
42019;DHT22;27703;51.980;5.848;2023-04-28T00:10:32;11.00;89.50
42019;DHT22;27703;51.980;5.848;2023-04-28T00:12:58;11.00;89.80
42019;DHT22;27703;51.980;5.848;2023-04-28T00:15:23;10.90;89.60
42019;DHT22;27703;51.980;5.848;2023-04-28T00:17:49;10.90;89.80
42019;DHT22;27703;51.980;5.848;2023-04-28T00:20:14;10.90;89.60
42019;DHT22;27703;51.980;5.848;2023-04-28T00:22:40;10.90;89.80
42019;DHT22;27703;51.980;5.848;2023-04-28T00:25:06;10.90;89.70
42019;DHT22;27703;51.980;5.848;2023-04-28T00:27:33;10.90;89.60
42019;DHT22;27703;51.980;5.848;2023-04-28T00:29:58;10.80;89.80
42019;DHT22;27703;51.980;5.848;2023-04-28T00:32:24;10.80;89.70
42019;DHT22;27703;51.980;5.848;2023-04-28T00:34:50;10.80;89.80
42019;DHT22;27703;51.980;5.848;2023-04-28T00:37:16;10.80;89.70
42019;DHT22;27703;51.980;5.848;2023-04-28T00:39:41;10.70;89.70
42019;DHT22;27703;51.980;5.848;2023-04-28T00:42:14;10.80;89.80
42019;DHT22;27703;51.980;5.848;2023-04-28T00:44:40;10.70;89.80
42019;DHT22;27703;51.980;5.848;2023-04-28T00:47:07;10.80;90.00
42019;DHT22;27703;51.980;5.848;2023-04-28T00:49:33;10.80;90.10
42019;DHT22;27703;51.980;5.848;2023-04-28T00:52:03;10.70;90.20
42019;DHT22;27703;51.980;5.848;2023-04-28T00:54:29;10.70;90.10
42019;DHT22;27703;51.980;5.848;2023-04-28T00:56:55;10.70;90.10
42019;DHT22;27703;51.980;5.848;2023-04-28T00:59:21;10.70;90.10
42019;DHT22;27703;51.980;5.848;2023-04-28T01:01:47;10.70;90.10
42019;DHT22;27703;51.980;5.848;2023-04-28T01:04:13;10.70;90.10
42019;DHT22;27703;51.980;5.848;2023-04-28T01:06:40;10.70;90.20
42019;DHT22;27703;51.980;5.848;2023-04-28T01:09:06;10.70;90.20
42019;DHT22;27703;51.980;5.848;2023-04-28T01:11:32;10.60;90.30
42019;DHT22;27703;51.980;5.848;2023-04-28T01:13:57;10.60;90.40
42019;DHT22;27703;51.980;5.848;2023-04-28T01:16:24;10.60;90.50
42019;DHT22;27703;51.980;5.848;2023-04-28T01:18:51;10.50;90.70
42019;DHT22;27703;51.980;5.848;2023-04-28T01:21:46;10.50;90.80
42019;DHT22;27703;51.980;5.848;2023-04-28T01:24:11;10.50;91.20
42019;DHT22;27703;51.980;5.848;2023-04-28T01:26:37;10.40;91.30
42019;DHT22;27703;51.980;5.848;2023-04-28T01:29:03;10.30;91.50
42019;DHT22;27703;51.980;5.848;2023-04-28T01:31:28;10.30;91.60
42019;DHT22;27703;51.980;5.848;2023-04-28T01:33:55;10.20;91.80
42019;DHT22;27703;51.980;5.848;2023-04-28T01:36:21;10.20;92.20
42019;DHT22;27703;51.980;5.848;2023-04-28T01:38:48;10.20;92.10
42019;DHT22;27703;51.980;5.848;2023-04-28T01:41:14;10.10;92.30
42019;DHT22;27703;51.980;5.848;2023-04-28T01:43:39;10.10;92.30
42019;DHT22;27703;51.980;5.848;2023-04-28T01:46:05;10.10;92.50
42019;DHT22;27703;51.980;5.848;2023-04-28T01:48:30;10.10;92.70
42019;DHT22;27703;51.980;5.848;2023-04-28T01:50:56;10.10;92.70
42019;DHT22;27703;51.980;5.848;2023-04-28T01:53:22;10.00;92.90
42019;DHT22;27703;51.980;5.848;2023-04-28T01:55:47;10.00;92.70
42019;DHT22;27703;51.980;5.848;2023-04-28T01:58:13;10.10;92.80
42019;DHT22;27703;51.980;5.848;2023-04-28T02:00:39;10.00;93.00
42019;DHT22;27703;51.980;5.848;2023-04-28T02:03:04;10.00;93.00
42019;DHT22;27703;51.980;5.848;2023-04-28T02:05:30;10.00;93.10
42019;DHT22;27703;51.980;5.848;2023-04-28T02:07:56;10.00;93.10
42019;DHT22;27703;51.980;5.848;2023-04-28T02:10:22;10.00;93.10
42019;DHT22;27703;51.980;5.848;2023-04-28T02:12:48;10.00;93.20
42019;DHT22;27703;51.980;5.848;2023-04-28T02:15:13;10.00;93.20
42019;DHT22;27703;51.980;5.848;2023-04-28T02:17:40;10.00;93.20
42019;DHT22;27703;51.980;5.848;2023-04-28T02:20:06;10.00;93.30
42019;DHT22;27703;51.980;5.848;2023-04-28T02:22:31;10.00;93.30
42019;DHT22;27703;51.980;5.848;2023-04-28T02:24:57;10.00;93.40
42019;DHT22;27703;51.980;5.848;2023-04-28T02:27:22;10.00;93.30
42019;DHT22;27703;51.980;5.848;2023-04-28T02:29:48;10.00;93.40
42019;DHT22;27703;51.980;5.848;2023-04-28T02:32:14;10.00;93.40
42019;DHT22;27703;51.980;5.848;2023-04-28T02:34:39;10.00;93.40
42019;DHT22;27703;51.980;5.848;2023-04-28T02:37:05;10.00;93.50
42019;DHT22;27703;51.980;5.848;2023-04-28T02:39:30;9.90;93.50
42019;DHT22;27703;51.980;5.848;2023-04-28T02:41:57;10.00;93.60
42019;DHT22;27703;51.980;5.848;2023-04-28T02:44:23;10.00;93.60
42019;DHT22;27703;51.980;5.848;2023-04-28T02:46:49;9.90;93.60
42019;DHT22;27703;51.980;5.848;2023-04-28T02:49:15;9.90;93.60
42019;DHT22;27703;51.980;5.848;2023-04-28T02:51:40;10.00;93.70
42019;DHT22;27703;51.980;5.848;2023-04-28T02:54:06;9.90;93.70
42019;DHT22;27703;51.980;5.848;2023-04-28T02:56:32;9.90;93.70
42019;DHT22;27703;51.980;5.848;2023-04-28T02:58:58;9.90;93.80
42019;DHT22;27703;51.980;5.848;2023-04-28T03:01:23;9.90;93.70
42019;DHT22;27703;51.980;5.848;2023-04-28T03:03:49;9.90;93.80
42019;DHT22;27703;51.980;5.848;2023-04-28T03:06:15;9.90;93.90
42019;DHT22;27703;51.980;5.848;2023-04-28T03:08:40;9.90;93.90
42019;DHT22;27703;51.980;5.848;2023-04-28T03:11:06;9.90;93.90
42019;DHT22;27703;51.980;5.848;2023-04-28T03:13:32;9.90;93.90
42019;DHT22;27703;51.980;5.848;2023-04-28T03:15:57;9.90;93.90
42019;DHT22;27703;51.980;5.848;2023-04-28T03:18:23;9.90;93.90
42019;DHT22;27703;51.980;5.848;2023-04-28T03:20:49;9.90;93.90
42019;DHT22;27703;51.980;5.848;2023-04-28T03:23:14;9.90;94.00
42019;DHT22;27703;51.980;5.848;2023-04-28T03:25:40;9.80;94.00
42019;DHT22;27703;51.980;5.848;2023-04-28T03:28:06;9.80;94.00
42019;DHT22;27703;51.980;5.848;2023-04-28T03:30:31;9.80;94.00
42019;DHT22;27703;51.980;5.848;2023-04-28T03:32:57;9.80;94.00
42019;DHT22;27703;51.980;5.848;2023-04-28T03:35:23;9.80;94.10
42019;DHT22;27703;51.980;5.848;2023-04-28T03:37:48;9.80;94.10
42019;DHT22;27703;51.980;5.848;2023-04-28T03:40:14;9.80;94.10
42019;DHT22;27703;51.980;5.848;2023-04-28T03:42:39;9.80;94.10
42019;DHT22;27703;51.980;5.848;2023-04-28T03:45:06;9.80;94.10
42019;DHT22;27703;51.980;5.848;2023-04-28T03:47:32;9.80;94.10
42019;DHT22;27703;51.980;5.848;2023-04-28T03:49:57;9.80;94.10
42019;DHT22;27703;51.980;5.848;2023-04-28T03:52:23;9.80;94.20
42019;DHT22;27703;51.980;5.848;2023-04-28T03:54:49;9.90;94.20
42019;DHT22;27703;51.980;5.848;2023-04-28T03:57:14;9.90;94.40
42019;DHT22;27703;51.980;5.848;2023-04-28T03:59:40;9.90;94.50
42019;DHT22;27703;51.980;5.848;2023-04-28T04:02:06;9.80;94.40
42019;DHT22;27703;51.980;5.848;2023-04-28T04:04:31;9.80;94.40
42019;DHT22;27703;51.980;5.848;2023-04-28T04:06:57;9.90;94.50
42019;DHT22;27703;51.980;5.848;2023-04-28T04:09:23;9.90;94.50
42019;DHT22;27703;51.980;5.848;2023-04-28T04:11:49;9.80;94.60
42019;DHT22;27703;51.980;5.848;2023-04-28T04:14:14;9.80;94.60
42019;DHT22;27703;51.980;5.848;2023-04-28T04:16:40;9.80;94.60
42019;DHT22;27703;51.980;5.848;2023-04-28T04:19:06;9.80;94.70
42019;DHT22;27703;51.980;5.848;2023-04-28T04:21:31;9.80;94.70
42019;DHT22;27703;51.980;5.848;2023-04-28T04:23:57;9.80;94.80
42019;DHT22;27703;51.980;5.848;2023-04-28T04:26:22;9.80;94.80
42019;DHT22;27703;51.980;5.848;2023-04-28T04:28:48;9.80;94.90
42019;DHT22;27703;51.980;5.848;2023-04-28T04:31:14;9.80;95.00
42019;DHT22;27703;51.980;5.848;2023-04-28T04:33:39;9.80;95.00
42019;DHT22;27703;51.980;5.848;2023-04-28T04:36:05;9.70;95.10
42019;DHT22;27703;51.980;5.848;2023-04-28T04:38:31;9.80;95.20
42019;DHT22;27703;51.980;5.848;2023-04-28T04:40:57;9.80;95.40
42019;DHT22;27703;51.980;5.848;2023-04-28T04:43:22;9.70;95.40
42019;DHT22;27703;51.980;5.848;2023-04-28T04:45:48;9.80;95.60
42019;DHT22;27703;51.980;5.848;2023-04-28T04:48:14;9.80;95.60
42019;DHT22;27703;51.980;5.848;2023-04-28T04:50:40;9.70;95.80
42019;DHT22;27703;51.980;5.848;2023-04-28T04:53:05;9.80;95.80
42019;DHT22;27703;51.980;5.848;2023-04-28T04:55:31;9.80;95.90
42019;DHT22;27703;51.980;5.848;2023-04-28T04:57:57;9.80;95.90
42019;DHT22;27703;51.980;5.848;2023-04-28T05:00:22;9.80;96.00
42019;DHT22;27703;51.980;5.848;2023-04-28T05:02:48;9.80;96.20
42019;DHT22;27703;51.980;5.848;2023-04-28T05:05:13;9.80;96.20
42019;DHT22;27703;51.980;5.848;2023-04-28T05:07:39;9.80;96.50
42019;DHT22;27703;51.980;5.848;2023-04-28T05:10:05;9.80;96.50
42019;DHT22;27703;51.980;5.848;2023-04-28T05:12:31;9.80;96.60
42019;DHT22;27703;51.980;5.848;2023-04-28T05:14:57;9.90;96.80
42019;DHT22;27703;51.980;5.848;2023-04-28T05:17:22;9.90;96.80
42019;DHT22;27703;51.980;5.848;2023-04-28T05:19:48;9.90;97.00
42019;DHT22;27703;51.980;5.848;2023-04-28T05:22:13;9.90;97.10
42019;DHT22;27703;51.980;5.848;2023-04-28T05:24:39;9.90;97.40
42019;DHT22;27703;51.980;5.848;2023-04-28T05:27:05;9.90;97.50
42019;DHT22;27703;51.980;5.848;2023-04-28T05:29:30;9.90;97.60
42019;DHT22;27703;51.980;5.848;2023-04-28T05:31:56;9.90;97.70
42019;DHT22;27703;51.980;5.848;2023-04-28T05:34:21;9.90;97.70
42019;DHT22;27703;51.980;5.848;2023-04-28T05:36:47;9.90;97.80
42019;DHT22;27703;51.980;5.848;2023-04-28T05:39:13;10.00;98.00
42019;DHT22;27703;51.980;5.848;2023-04-28T05:41:38;10.00;98.30
42019;DHT22;27703;51.980;5.848;2023-04-28T05:44:04;10.00;98.40
42019;DHT22;27703;51.980;5.848;2023-04-28T05:46:30;10.00;98.50
42019;DHT22;27703;51.980;5.848;2023-04-28T05:48:56;10.00;98.60
42019;DHT22;27703;51.980;5.848;2023-04-28T05:51:21;10.00;98.80
42019;DHT22;27703;51.980;5.848;2023-04-28T05:53:47;10.00;98.90
42019;DHT22;27703;51.980;5.848;2023-04-28T05:56:13;10.00;99.40
42019;DHT22;27703;51.980;5.848;2023-04-28T05:58:39;10.00;99.20
42019;DHT22;27703;51.980;5.848;2023-04-28T06:01:05;10.00;99.40
42019;DHT22;27703;51.980;5.848;2023-04-28T06:03:31;10.00;99.60
42019;DHT22;27703;51.980;5.848;2023-04-28T06:05:56;10.00;99.90
42019;DHT22;27703;51.980;5.848;2023-04-28T06:08:22;10.00;99.90
42019;DHT22;27703;51.980;5.848;2023-04-28T06:10:47;10.00;99.90
42019;DHT22;27703;51.980;5.848;2023-04-28T06:13:13;10.10;99.90
42019;DHT22;27703;51.980;5.848;2023-04-28T06:15:38;10.10;99.90
42019;DHT22;27703;51.980;5.848;2023-04-28T06:18:04;10.10;99.90
42019;DHT22;27703;51.980;5.848;2023-04-28T06:20:34;10.10;99.90
42019;DHT22;27703;51.980;5.848;2023-04-28T06:23:00;10.10;99.90
42019;DHT22;27703;51.980;5.848;2023-04-28T06:25:26;10.10;99.90
42019;DHT22;27703;51.980;5.848;2023-04-28T06:27:51;10.10;99.90
42019;DHT22;27703;51.980;5.848;2023-04-28T06:30:18;10.10;99.90
42019;DHT22;27703;51.980;5.848;2023-04-28T06:32:44;10.10;99.90
42019;DHT22;27703;51.980;5.848;2023-04-28T06:35:10;10.10;99.90
42019;DHT22;27703;51.980;5.848;2023-04-28T06:37:36;10.20;99.90
42019;DHT22;27703;51.980;5.848;2023-04-28T06:40:01;10.20;99.90
42019;DHT22;27703;51.980;5.848;2023-04-28T06:42:27;10.20;99.90
42019;DHT22;27703;51.980;5.848;2023-04-28T06:44:52;10.30;99.90
42019;DHT22;27703;51.980;5.848;2023-04-28T06:47:18;10.30;99.90
42019;DHT22;27703;51.980;5.848;2023-04-28T06:49:43;10.20;99.90
42019;DHT22;27703;51.980;5.848;2023-04-28T06:52:11;10.30;99.90
42019;DHT22;27703;51.980;5.848;2023-04-28T06:54:38;10.30;99.90
42019;DHT22;27703;51.980;5.848;2023-04-28T06:57:04;10.40;99.90
42019;DHT22;27703;51.980;5.848;2023-04-28T06:59:30;10.50;99.90
42019;DHT22;27703;51.980;5.848;2023-04-28T07:01:55;10.60;99.90
42019;DHT22;27703;51.980;5.848;2023-04-28T07:04:21;10.70;99.90
42019;DHT22;27703;51.980;5.848;2023-04-28T07:06:47;10.80;99.90
42019;DHT22;27703;51.980;5.848;2023-04-28T07:09:12;11.00;99.90
42019;DHT22;27703;51.980;5.848;2023-04-28T07:11:38;11.10;99.90
42019;DHT22;27703;51.980;5.848;2023-04-28T07:14:03;11.20;99.90
42019;DHT22;27703;51.980;5.848;2023-04-28T07:16:29;11.20;99.90
42019;DHT22;27703;51.980;5.848;2023-04-28T07:18:55;11.10;99.90
42019;DHT22;27703;51.980;5.848;2023-04-28T07:21:21;11.20;99.90
42019;DHT22;27703;51.980;5.848;2023-04-28T07:23:46;11.20;99.90
42019;DHT22;27703;51.980;5.848;2023-04-28T07:26:13;11.30;99.90
42019;DHT22;27703;51.980;5.848;2023-04-28T07:28:41;11.30;99.90
42019;DHT22;27703;51.980;5.848;2023-04-28T07:31:07;11.30;99.90
42019;DHT22;27703;51.980;5.848;2023-04-28T07:33:32;11.20;99.90
42019;DHT22;27703;51.980;5.848;2023-04-28T07:35:58;11.20;99.90
42019;DHT22;27703;51.980;5.848;2023-04-28T07:38:23;11.30;99.90
42019;DHT22;27703;51.980;5.848;2023-04-28T07:40:49;11.30;99.90
42019;DHT22;27703;51.980;5.848;2023-04-28T07:43:15;11.40;99.90
42019;DHT22;27703;51.980;5.848;2023-04-28T07:45:41;11.50;99.90
42019;DHT22;27703;51.980;5.848;2023-04-28T07:48:10;11.50;99.90
42019;DHT22;27703;51.980;5.848;2023-04-28T07:50:35;11.60;99.90
42019;DHT22;27703;51.980;5.848;2023-04-28T07:53:01;11.60;99.90
42019;DHT22;27703;51.980;5.848;2023-04-28T07:55:26;11.60;99.90
42019;DHT22;27703;51.980;5.848;2023-04-28T07:57:52;11.60;99.90
42019;DHT22;27703;51.980;5.848;2023-04-28T08:00:18;11.70;99.90
42019;DHT22;27703;51.980;5.848;2023-04-28T08:02:43;11.70;99.90
42019;DHT22;27703;51.980;5.848;2023-04-28T08:05:09;11.70;99.90
42019;DHT22;27703;51.980;5.848;2023-04-28T08:07:35;11.70;99.90
42019;DHT22;27703;51.980;5.848;2023-04-28T08:10:02;11.80;99.90
42019;DHT22;27703;51.980;5.848;2023-04-28T08:12:28;11.80;99.90
42019;DHT22;27703;51.980;5.848;2023-04-28T08:14:55;11.80;99.90
42019;DHT22;27703;51.980;5.848;2023-04-28T08:17:20;11.90;99.90
42019;DHT22;27703;51.980;5.848;2023-04-28T08:19:46;11.90;99.90
42019;DHT22;27703;51.980;5.848;2023-04-28T08:22:12;12.00;99.90
42019;DHT22;27703;51.980;5.848;2023-04-28T08:24:37;12.00;99.90
42019;DHT22;27703;51.980;5.848;2023-04-28T08:27:03;12.10;99.90
42019;DHT22;27703;51.980;5.848;2023-04-28T08:29:29;12.30;99.90
42019;DHT22;27703;51.980;5.848;2023-04-28T08:31:56;12.40;99.90
42019;DHT22;27703;51.980;5.848;2023-04-28T08:34:22;12.50;99.90
42019;DHT22;27703;51.980;5.848;2023-04-28T08:36:47;12.60;99.90
42019;DHT22;27703;51.980;5.848;2023-04-28T08:39:13;12.60;99.90
42019;DHT22;27703;51.980;5.848;2023-04-28T08:41:39;12.70;99.90
42019;DHT22;27703;51.980;5.848;2023-04-28T08:44:08;12.80;99.90
42019;DHT22;27703;51.980;5.848;2023-04-28T08:46:35;12.80;99.90
42019;DHT22;27703;51.980;5.848;2023-04-28T08:49:03;12.80;99.90
42019;DHT22;27703;51.980;5.848;2023-04-28T08:51:34;12.80;99.90
42019;DHT22;27703;51.980;5.848;2023-04-28T08:54:02;12.80;99.90
42019;DHT22;27703;51.980;5.848;2023-04-28T08:56:33;12.80;99.90
42019;DHT22;27703;51.980;5.848;2023-04-28T08:59:03;12.80;99.90
42019;DHT22;27703;51.980;5.848;2023-04-28T09:01:32;12.80;99.90
42019;DHT22;27703;51.980;5.848;2023-04-28T09:04:00;12.70;99.90
42019;DHT22;27703;51.980;5.848;2023-04-28T09:06:37;12.70;99.90
42019;DHT22;27703;51.980;5.848;2023-04-28T09:09:24;12.80;99.90
42019;DHT22;27703;51.980;5.848;2023-04-28T09:14:15;12.80;99.90
42019;DHT22;27703;51.980;5.848;2023-04-28T09:16:41;12.80;99.90
42019;DHT22;27703;51.980;5.848;2023-04-28T09:19:07;12.90;99.90
42019;DHT22;27703;51.980;5.848;2023-04-28T09:21:32;12.90;99.90
42019;DHT22;27703;51.980;5.848;2023-04-28T09:24:10;12.90;99.90
42019;DHT22;27703;51.980;5.848;2023-04-28T09:26:48;12.90;99.90
42019;DHT22;27703;51.980;5.848;2023-04-28T09:29:15;13.00;99.90
42019;DHT22;27703;51.980;5.848;2023-04-28T09:31:40;13.00;99.90
42019;DHT22;27703;51.980;5.848;2023-04-28T09:34:07;13.00;99.90
42019;DHT22;27703;51.980;5.848;2023-04-28T09:36:33;13.00;99.90
42019;DHT22;27703;51.980;5.848;2023-04-28T09:38:59;13.10;99.90
42019;DHT22;27703;51.980;5.848;2023-04-28T09:44:15;13.10;99.90
42019;DHT22;27703;51.980;5.848;2023-04-28T09:46:45;13.10;99.90
42019;DHT22;27703;51.980;5.848;2023-04-28T09:49:12;13.10;99.90
42019;DHT22;27703;51.980;5.848;2023-04-28T09:51:38;13.10;99.90
42019;DHT22;27703;51.980;5.848;2023-04-28T09:54:04;13.10;99.90
42019;DHT22;27703;51.980;5.848;2023-04-28T09:56:31;13.10;99.90
42019;DHT22;27703;51.980;5.848;2023-04-28T09:58:58;13.00;99.90
42019;DHT22;27703;51.980;5.848;2023-04-28T10:01:26;13.00;99.90
42019;DHT22;27703;51.980;5.848;2023-04-28T10:03:52;13.00;99.90
42019;DHT22;27703;51.980;5.848;2023-04-28T10:06:18;13.00;99.90
42019;DHT22;27703;51.980;5.848;2023-04-28T10:08:44;13.00;99.90
42019;DHT22;27703;51.980;5.848;2023-04-28T10:11:16;13.00;99.90
42019;DHT22;27703;51.980;5.848;2023-04-28T10:13:42;13.00;99.90
42019;DHT22;27703;51.980;5.848;2023-04-28T10:16:09;13.00;99.90
42019;DHT22;27703;51.980;5.848;2023-04-28T10:18:36;13.00;99.90
42019;DHT22;27703;51.980;5.848;2023-04-28T10:21:03;13.00;99.90
42019;DHT22;27703;51.980;5.848;2023-04-28T10:23:36;13.00;99.90
42019;DHT22;27703;51.980;5.848;2023-04-28T10:26:10;13.10;99.90
42019;DHT22;27703;51.980;5.848;2023-04-28T10:28:44;13.10;99.90
42019;DHT22;27703;51.980;5.848;2023-04-28T10:31:11;13.20;99.90
42019;DHT22;27703;51.980;5.848;2023-04-28T10:33:37;13.20;99.90
42019;DHT22;27703;51.980;5.848;2023-04-28T10:36:03;13.30;99.90
42019;DHT22;27703;51.980;5.848;2023-04-28T10:38:30;13.30;99.90
42019;DHT22;27703;51.980;5.848;2023-04-28T10:40:56;13.30;99.90
42019;DHT22;27703;51.980;5.848;2023-04-28T10:43:35;13.30;99.90
42019;DHT22;27703;51.980;5.848;2023-04-28T10:46:06;13.30;99.90
42019;DHT22;27703;51.980;5.848;2023-04-28T10:58:41;13.30;99.90
42019;DHT22;27703;51.980;5.848;2023-04-28T11:01:26;13.30;99.90
42019;DHT22;27703;51.980;5.848;2023-04-28T11:03:55;13.30;99.90
42019;DHT22;27703;51.980;5.848;2023-04-28T11:06:26;13.40;99.90
42019;DHT22;27703;51.980;5.848;2023-04-28T11:09:01;13.40;99.90
42019;DHT22;27703;51.980;5.848;2023-04-28T11:11:31;13.50;99.90
42019;DHT22;27703;51.980;5.848;2023-04-28T11:17:00;13.60;99.90
42019;DHT22;27703;51.980;5.848;2023-04-28T11:19:35;13.60;99.90
42019;DHT22;27703;51.980;5.848;2023-04-28T11:22:02;13.60;99.90
42019;DHT22;27703;51.980;5.848;2023-04-28T11:24:29;13.60;99.90
42019;DHT22;27703;51.980;5.848;2023-04-28T11:26:58;13.70;99.90
42019;DHT22;27703;51.980;5.848;2023-04-28T11:29:32;13.70;99.90
42019;DHT22;27703;51.980;5.848;2023-04-28T11:31:58;13.70;99.90
42019;DHT22;27703;51.980;5.848;2023-04-28T11:34:24;13.70;99.90
42019;DHT22;27703;51.980;5.848;2023-04-28T11:36:50;13.70;99.90
42019;DHT22;27703;51.980;5.848;2023-04-28T11:39:16;13.70;99.90
42019;DHT22;27703;51.980;5.848;2023-04-28T11:41:49;13.70;99.90
42019;DHT22;27703;51.980;5.848;2023-04-28T11:44:17;13.70;99.90
42019;DHT22;27703;51.980;5.848;2023-04-28T11:46:47;13.60;99.90
42019;DHT22;27703;51.980;5.848;2023-04-28T11:49:21;13.60;99.90
42019;DHT22;27703;51.980;5.848;2023-04-28T11:51:52;13.60;99.90
42019;DHT22;27703;51.980;5.848;2023-04-28T11:54:21;13.70;99.90
42019;DHT22;27703;51.980;5.848;2023-04-28T11:56:47;13.80;99.90
42019;DHT22;27703;51.980;5.848;2023-04-28T11:59:13;13.90;99.90
42019;DHT22;27703;51.980;5.848;2023-04-28T12:01:49;14.00;99.90
42019;DHT22;27703;51.980;5.848;2023-04-28T12:07:04;14.10;99.90
42019;DHT22;27703;51.980;5.848;2023-04-28T12:09:31;14.10;99.90
42019;DHT22;27703;51.980;5.848;2023-04-28T12:12:00;14.00;99.90
42019;DHT22;27703;51.980;5.848;2023-04-28T12:14:27;14.00;99.90
42019;DHT22;27703;51.980;5.848;2023-04-28T12:16:53;13.90;99.90
42019;DHT22;27703;51.980;5.848;2023-04-28T12:19:19;14.00;99.90
42019;DHT22;27703;51.980;5.848;2023-04-28T12:22:04;14.00;99.90
42019;DHT22;27703;51.980;5.848;2023-04-28T12:24:30;14.00;99.90
42019;DHT22;27703;51.980;5.848;2023-04-28T12:27:18;14.00;99.90
42019;DHT22;27703;51.980;5.848;2023-04-28T12:29:49;14.00;99.90
42019;DHT22;27703;51.980;5.848;2023-04-28T12:32:15;14.00;99.90
42019;DHT22;27703;51.980;5.848;2023-04-28T12:34:44;13.90;99.90
42019;DHT22;27703;51.980;5.848;2023-04-28T12:37:09;13.90;99.90
42019;DHT22;27703;51.980;5.848;2023-04-28T12:39:39;13.90;99.90
42019;DHT22;27703;51.980;5.848;2023-04-28T12:42:05;13.90;99.90
42019;DHT22;27703;51.980;5.848;2023-04-28T12:44:32;13.80;99.90
42019;DHT22;27703;51.980;5.848;2023-04-28T12:47:01;13.90;99.90
42019;DHT22;27703;51.980;5.848;2023-04-28T12:49:27;13.90;99.90
42019;DHT22;27703;51.980;5.848;2023-04-28T12:51:52;13.90;99.90
42019;DHT22;27703;51.980;5.848;2023-04-28T12:54:18;13.90;99.90
42019;DHT22;27703;51.980;5.848;2023-04-28T12:56:43;13.90;99.90
42019;DHT22;27703;51.980;5.848;2023-04-28T12:59:09;13.90;99.90
42019;DHT22;27703;51.980;5.848;2023-04-28T13:01:35;13.90;99.90
42019;DHT22;27703;51.980;5.848;2023-04-28T13:04:00;13.80;99.90
42019;DHT22;27703;51.980;5.848;2023-04-28T13:06:26;13.80;99.90
42019;DHT22;27703;51.980;5.848;2023-04-28T13:08:52;13.80;99.90
42019;DHT22;27703;51.980;5.848;2023-04-28T13:11:18;13.70;99.90
42019;DHT22;27703;51.980;5.848;2023-04-28T13:13:44;13.80;99.90
42019;DHT22;27703;51.980;5.848;2023-04-28T13:16:10;13.70;99.90
42019;DHT22;27703;51.980;5.848;2023-04-28T13:18:36;13.70;99.90
42019;DHT22;27703;51.980;5.848;2023-04-28T13:21:02;13.70;99.90
42019;DHT22;27703;51.980;5.848;2023-04-28T13:23:29;13.80;99.90
42019;DHT22;27703;51.980;5.848;2023-04-28T13:25:55;13.80;99.90
42019;DHT22;27703;51.980;5.848;2023-04-28T13:28:20;13.90;99.90
42019;DHT22;27703;51.980;5.848;2023-04-28T13:30:46;13.90;99.90
42019;DHT22;27703;51.980;5.848;2023-04-28T13:33:12;14.00;99.90
42019;DHT22;27703;51.980;5.848;2023-04-28T13:35:37;14.20;99.90
42019;DHT22;27703;51.980;5.848;2023-04-28T13:38:03;14.20;99.90
42019;DHT22;27703;51.980;5.848;2023-04-28T13:40:29;14.20;99.90
42019;DHT22;27703;51.980;5.848;2023-04-28T13:42:54;14.20;99.90
42019;DHT22;27703;51.980;5.848;2023-04-28T13:45:20;14.20;99.90
42019;DHT22;27703;51.980;5.848;2023-04-28T13:47:46;14.20;99.90
42019;DHT22;27703;51.980;5.848;2023-04-28T13:50:13;14.10;99.90
42019;DHT22;27703;51.980;5.848;2023-04-28T13:52:38;14.20;99.90
42019;DHT22;27703;51.980;5.848;2023-04-28T13:55:04;14.20;99.90
42019;DHT22;27703;51.980;5.848;2023-04-28T13:57:30;14.30;99.90
42019;DHT22;27703;51.980;5.848;2023-04-28T13:59:55;14.30;99.90
42019;DHT22;27703;51.980;5.848;2023-04-28T14:02:22;14.30;99.90
42019;DHT22;27703;51.980;5.848;2023-04-28T14:04:48;14.40;99.90
42019;DHT22;27703;51.980;5.848;2023-04-28T14:07:15;14.40;99.90
42019;DHT22;27703;51.980;5.848;2023-04-28T14:09:41;14.40;99.90
42019;DHT22;27703;51.980;5.848;2023-04-28T14:12:06;14.50;99.90
42019;DHT22;27703;51.980;5.848;2023-04-28T14:14:33;14.50;99.90
42019;DHT22;27703;51.980;5.848;2023-04-28T14:16:58;14.40;99.90
42019;DHT22;27703;51.980;5.848;2023-04-28T14:19:24;14.50;99.90
42019;DHT22;27703;51.980;5.848;2023-04-28T14:21:51;14.40;99.90
42019;DHT22;27703;51.980;5.848;2023-04-28T14:24:17;14.40;99.90
42019;DHT22;27703;51.980;5.848;2023-04-28T14:26:44;14.40;99.90
42019;DHT22;27703;51.980;5.848;2023-04-28T14:29:10;14.30;99.90
42019;DHT22;27703;51.980;5.848;2023-04-28T14:31:36;14.30;99.90
42019;DHT22;27703;51.980;5.848;2023-04-28T14:34:02;14.20;99.90
42019;DHT22;27703;51.980;5.848;2023-04-28T14:36:29;14.30;99.90
42019;DHT22;27703;51.980;5.848;2023-04-28T14:38:56;14.30;99.90
42019;DHT22;27703;51.980;5.848;2023-04-28T14:41:21;14.30;99.90
42019;DHT22;27703;51.980;5.848;2023-04-28T14:43:47;14.30;99.90
42019;DHT22;27703;51.980;5.848;2023-04-28T14:46:12;14.30;99.90
42019;DHT22;27703;51.980;5.848;2023-04-28T14:48:38;14.30;99.90
42019;DHT22;27703;51.980;5.848;2023-04-28T14:51:04;14.30;99.90
42019;DHT22;27703;51.980;5.848;2023-04-28T14:53:30;14.30;99.90
42019;DHT22;27703;51.980;5.848;2023-04-28T14:55:56;14.30;99.90
42019;DHT22;27703;51.980;5.848;2023-04-28T14:58:23;14.30;99.90
42019;DHT22;27703;51.980;5.848;2023-04-28T15:00:49;14.30;99.90
42019;DHT22;27703;51.980;5.848;2023-04-28T15:03:15;14.20;99.90
42019;DHT22;27703;51.980;5.848;2023-04-28T15:05:40;14.20;99.90
42019;DHT22;27703;51.980;5.848;2023-04-28T15:08:06;14.20;99.90
42019;DHT22;27703;51.980;5.848;2023-04-28T15:10:38;14.20;99.90
42019;DHT22;27703;51.980;5.848;2023-04-28T15:13:04;14.20;99.90
42019;DHT22;27703;51.980;5.848;2023-04-28T15:15:30;14.20;99.90
42019;DHT22;27703;51.980;5.848;2023-04-28T15:17:56;14.20;99.90
42019;DHT22;27703;51.980;5.848;2023-04-28T15:20:28;14.30;99.90
42019;DHT22;27703;51.980;5.848;2023-04-28T15:22:55;14.20;99.90
42019;DHT22;27703;51.980;5.848;2023-04-28T15:25:21;14.20;99.90
42019;DHT22;27703;51.980;5.848;2023-04-28T15:27:46;14.30;99.90
42019;DHT22;27703;51.980;5.848;2023-04-28T15:30:14;14.20;99.90
42019;DHT22;27703;51.980;5.848;2023-04-28T15:32:40;14.20;99.90
42019;DHT22;27703;51.980;5.848;2023-04-28T15:35:06;14.20;99.90
42019;DHT22;27703;51.980;5.848;2023-04-28T15:37:45;14.20;99.90
42019;DHT22;27703;51.980;5.848;2023-04-28T15:40:17;14.20;99.90
42019;DHT22;27703;51.980;5.848;2023-04-28T15:42:44;14.10;99.90
42019;DHT22;27703;51.980;5.848;2023-04-28T15:45:14;14.10;99.90
42019;DHT22;27703;51.980;5.848;2023-04-28T15:47:41;14.10;99.90
42019;DHT22;27703;51.980;5.848;2023-04-28T15:50:08;14.00;99.90